createdAt,value
2023-01-09T00:00:48.645Z,99109.72
2023-01-09T00:03:15.607Z,99121.47
2023-01-09T00:05:42.559Z,99124.91
2023-01-09T00:08:09.536Z,99124.41
2023-01-09T00:10:36.640Z,99128.66
2023-01-09T00:13:06.635Z,99130.06
2023-01-09T00:15:33.710Z,99131.81
2023-01-09T00:18:00.652Z,99120.38
2023-01-09T00:20:27.477Z,99120.56
2023-01-09T00:22:54.272Z,99110.81
2023-01-09T00:25:22.936Z,99110.16
2023-01-09T00:27:49.795Z,99123.84
2023-01-09T00:30:24.948Z,99133.00
2023-01-09T00:36:39.026Z,99127.44
2023-01-09T00:39:06.284Z,99135.00
2023-01-09T00:41:37.113Z,99129.56
2023-01-09T00:44:14.319Z,99136.34
2023-01-09T00:46:45.528Z,99126.47
2023-01-09T00:49:16.310Z,99125.28
2023-01-09T00:51:46.415Z,99138.69
2023-01-09T00:54:15.744Z,99144.13
2023-01-09T00:56:42.757Z,99141.38
2023-01-09T00:59:09.952Z,99127.66
2023-01-09T01:01:42.129Z,99144.19
2023-01-09T01:04:27.698Z,99139.34
2023-01-09T01:07:19.126Z,99147.50
2023-01-09T01:09:49.755Z,99165.78
2023-01-09T01:12:19.175Z,99152.97
2023-01-09T01:14:46.234Z,99144.28
2023-01-09T01:17:13.053Z,99146.00
2023-01-09T01:19:39.878Z,99160.28
2023-01-09T01:22:06.747Z,99157.03
2023-01-09T01:24:34.275Z,99153.06
2023-01-09T01:27:01.310Z,99159.16
2023-01-09T01:29:28.171Z,99162.16
2023-01-09T01:31:55.236Z,99156.81
2023-01-09T01:34:22.290Z,99156.41
2023-01-09T01:36:49.115Z,99156.47
2023-01-09T01:39:16.570Z,99163.13
2023-01-09T01:41:43.388Z,99168.25
2023-01-09T01:44:48.250Z,99177.06
2023-01-09T01:47:16.611Z,99158.81
2023-01-09T01:49:43.569Z,99170.16
2023-01-09T01:52:10.509Z,99170.47
2023-01-09T01:54:37.329Z,99164.13
2023-01-09T01:57:05.378Z,99164.22
2023-01-09T01:59:38.562Z,99166.88
2023-01-09T02:02:06.050Z,99168.03
2023-01-09T02:04:34.999Z,99164.16
2023-01-09T02:07:05.074Z,99168.00
2023-01-09T02:09:32.217Z,99171.56
2023-01-09T02:12:01.007Z,99161.41
2023-01-09T02:14:29.737Z,99166.03
2023-01-09T02:17:07.474Z,99163.47
2023-01-09T02:19:49.284Z,99168.34
2023-01-09T02:22:30.511Z,99174.16
2023-01-09T02:25:03.528Z,99171.56
2023-01-09T02:27:56.276Z,99175.84
2023-01-09T02:30:32.162Z,99181.97
2023-01-09T02:33:05.733Z,99168.75
2023-01-09T02:35:46.876Z,99178.75
2023-01-09T02:38:43.126Z,99190.31
2023-01-09T02:41:21.748Z,99167.56
2023-01-09T02:43:48.702Z,99165.03
2023-01-09T02:46:20.079Z,99169.66
2023-01-09T02:48:50.058Z,99174.72
2023-01-09T02:51:27.334Z,99168.66
2023-01-09T02:53:55.401Z,99166.66
2023-01-09T02:57:19.485Z,99158.94
2023-01-09T03:00:00.081Z,99155.25
2023-01-09T03:02:37.996Z,99152.66
2023-01-09T03:05:13.245Z,99149.41
2023-01-09T03:07:48.540Z,99137.72
2023-01-09T03:10:24.098Z,99140.31
2023-01-09T03:12:53.931Z,99131.88
2023-01-09T03:15:25.143Z,99137.59
2023-01-09T03:17:52.791Z,99142.56
2023-01-09T03:20:22.923Z,99138.41
2023-01-09T03:22:54.960Z,99138.22
2023-01-09T03:25:21.899Z,99136.91
2023-01-09T03:27:58.027Z,99133.63
2023-01-09T03:30:25.788Z,99129.91
2023-01-09T03:32:52.601Z,99125.41
2023-01-09T03:35:19.557Z,99128.59
2023-01-09T03:37:46.398Z,99137.78
2023-01-09T03:40:13.457Z,99125.41
2023-01-09T03:42:40.183Z,99130.25
2023-01-09T03:45:07.610Z,99136.31
2023-01-09T03:47:34.380Z,99129.97
2023-01-09T03:50:01.209Z,99132.44
2023-01-09T03:52:28.400Z,99131.72
2023-01-09T03:54:55.587Z,99140.06
2023-01-09T03:57:24.345Z,99136.94
2023-01-09T03:59:51.167Z,99141.25
2023-01-09T04:02:18.167Z,99142.50
2023-01-09T04:04:45.062Z,99141.66
2023-01-09T04:07:11.971Z,99150.81
2023-01-09T04:09:38.885Z,99144.81
2023-01-09T04:12:06.016Z,99148.81
2023-01-09T04:14:32.753Z,99139.22
2023-01-09T04:16:59.918Z,99147.41
2023-01-09T04:19:26.647Z,99145.56
2023-01-09T04:21:53.483Z,99149.53
2023-01-09T04:24:20.963Z,99140.84
2023-01-09T04:26:47.870Z,99139.47
2023-01-09T04:29:14.929Z,99135.97
2023-01-09T04:31:42.017Z,99142.53
2023-01-09T04:34:09.015Z,99137.47
2023-01-09T04:36:36.386Z,99147.63
2023-01-09T04:39:03.751Z,99150.50
2023-01-09T04:41:49.036Z,99139.28
2023-01-09T04:44:21.188Z,99149.94
2023-01-09T04:46:48.385Z,99145.03
2023-01-09T04:49:15.492Z,99150.63
2023-01-09T04:51:42.339Z,99147.00
2023-01-09T04:54:09.476Z,99135.31
2023-01-09T04:56:37.265Z,99143.84
2023-01-09T04:59:05.438Z,99140.06
2023-01-09T05:01:32.278Z,99135.19
2023-01-09T05:03:59.241Z,99136.72
2023-01-09T05:06:26.045Z,99149.53
2023-01-09T05:08:52.930Z,99153.03
2023-01-09T05:11:19.963Z,99153.47
2023-01-09T05:13:46.770Z,99152.03
2023-01-09T05:16:13.838Z,99166.03
2023-01-09T05:18:40.808Z,99164.78
2023-01-09T05:21:07.812Z,99173.66
2023-01-09T05:23:34.653Z,99163.94
2023-01-09T05:26:01.594Z,99168.38
2023-01-09T05:28:28.608Z,99169.47
2023-01-09T05:30:55.462Z,99165.34
2023-01-09T05:33:22.541Z,99163.66
2023-01-09T05:35:49.352Z,99166.19
2023-01-09T05:38:16.218Z,99166.75
2023-01-09T05:40:43.034Z,99171.63
2023-01-09T05:43:09.846Z,99171.66
2023-01-09T05:45:36.985Z,99190.56
2023-01-09T05:48:04.000Z,99189.84
2023-01-09T05:50:31.399Z,99199.81
2023-01-09T05:52:58.207Z,99190.59
2023-01-09T05:55:24.963Z,99187.59
2023-01-09T05:57:51.688Z,99182.63
2023-01-09T06:00:19.282Z,99186.50
2023-01-09T06:02:46.299Z,99192.25
2023-01-09T06:05:13.405Z,99199.56
2023-01-09T06:07:40.809Z,99184.13
2023-01-09T06:10:12.492Z,99182.38
2023-01-09T06:12:39.641Z,99176.53
2023-01-09T06:15:08.962Z,99183.41
2023-01-09T06:17:36.063Z,99183.31
2023-01-09T06:20:02.968Z,99194.28
2023-01-09T06:22:29.752Z,99187.25
2023-01-09T06:24:58.237Z,99203.78
2023-01-09T06:27:25.089Z,99203.63
2023-01-09T06:29:51.818Z,99202.50
2023-01-09T06:32:18.702Z,99205.31
2023-01-09T06:34:45.505Z,99201.59
2023-01-09T06:37:12.517Z,99202.78
2023-01-09T06:39:39.527Z,99219.19
2023-01-09T06:42:06.607Z,99222.53
2023-01-09T06:44:36.496Z,99225.66
2023-01-09T06:47:04.425Z,99231.06
2023-01-09T06:49:31.218Z,99225.19
2023-01-09T06:51:58.247Z,99227.53
2023-01-09T06:54:27.396Z,99247.00
2023-01-09T06:56:55.695Z,99250.19
2023-01-09T06:59:22.452Z,99251.75
2023-01-09T07:01:49.291Z,99266.50
2023-01-09T07:04:17.657Z,99258.22
2023-01-09T07:06:48.496Z,99275.75
2023-01-09T07:09:15.808Z,99277.28
2023-01-09T07:11:42.793Z,99278.75
2023-01-09T07:14:09.743Z,99284.00
2023-01-09T07:16:36.910Z,99291.06
2023-01-09T07:19:03.851Z,99300.53
2023-01-09T07:21:32.701Z,99295.84
2023-01-09T07:23:59.925Z,99304.06
2023-01-09T07:26:26.951Z,99304.84
2023-01-09T07:28:54.643Z,99309.03
2023-01-09T07:31:21.497Z,99301.81
2023-01-09T07:33:48.264Z,99314.56
2023-01-09T07:36:15.231Z,99316.53
2023-01-09T07:38:41.994Z,99312.63
2023-01-09T07:41:08.926Z,99319.72
2023-01-09T07:43:36.950Z,99329.94
2023-01-09T07:46:03.867Z,99339.63
2023-01-09T07:48:30.773Z,99333.91
2023-01-09T07:50:57.721Z,99344.38
2023-01-09T07:53:24.513Z,99339.53
2023-01-09T07:56:04.100Z,99338.72
2023-01-09T07:58:30.933Z,99342.91
2023-01-09T08:00:57.781Z,99338.75
2023-01-09T08:03:24.638Z,99349.84
2023-01-09T08:05:51.740Z,99355.75
2023-01-09T08:08:18.681Z,99348.41
2023-01-09T08:10:45.422Z,99359.56
2023-01-09T08:13:12.252Z,99350.88
2023-01-09T08:15:39.327Z,99356.94
2023-01-09T08:18:06.253Z,99358.63
2023-01-09T08:20:33.020Z,99353.28
2023-01-09T08:22:59.918Z,99371.22
2023-01-09T08:25:26.730Z,99376.63
2023-01-09T08:27:53.563Z,99372.59
2023-01-09T08:30:20.688Z,99383.47
2023-01-09T08:32:52.459Z,99387.41
2023-01-09T08:35:19.751Z,99385.84
2023-01-09T08:37:47.724Z,99399.56
2023-01-09T08:40:17.870Z,99402.03
2023-01-09T08:43:03.781Z,99388.34
2023-01-09T08:45:50.297Z,99403.16
2023-01-09T08:48:17.518Z,99402.38
2023-01-09T08:50:44.339Z,99404.84
2023-01-09T08:53:11.778Z,99412.94
2023-01-09T08:55:39.057Z,99421.41
2023-01-09T08:58:05.955Z,99429.47
2023-01-09T09:00:33.243Z,99437.22
2023-01-09T09:03:01.181Z,99440.38
2023-01-09T09:05:30.076Z,99432.28
2023-01-09T09:07:57.779Z,99450.97
2023-01-09T09:10:27.036Z,99452.94
2023-01-09T09:12:56.195Z,99468.56
2023-01-09T09:15:24.243Z,99464.59
2023-01-09T09:17:54.462Z,99466.47
2023-01-09T09:20:22.747Z,99479.28
2023-01-09T09:22:49.809Z,99480.56
2023-01-09T09:25:16.902Z,99484.94
2023-01-09T09:27:43.874Z,99495.78
2023-01-09T09:30:11.911Z,99502.72
2023-01-09T09:32:39.143Z,99507.38
2023-01-09T09:35:06.632Z,99501.75
2023-01-09T09:37:33.483Z,99507.19
2023-01-09T09:40:09.604Z,99512.38
2023-01-09T09:43:24.186Z,99514.59
2023-01-09T09:46:05.285Z,99527.09
2023-01-09T09:48:50.458Z,99532.19
2023-01-09T09:51:38.807Z,99529.72
2023-01-09T09:54:41.496Z,99543.09
2023-01-09T09:57:15.451Z,99542.75
2023-01-09T09:59:43.688Z,99550.50
2023-01-09T10:02:24.221Z,99556.13
2023-01-09T10:05:14.066Z,99562.34
2023-01-09T10:07:46.685Z,99564.53
2023-01-09T10:10:20.313Z,99574.78
2023-01-09T10:12:54.803Z,99578.94
2023-01-09T10:15:41.574Z,99578.34
2023-01-09T10:18:40.182Z,99588.28
2023-01-09T10:21:15.955Z,99596.63
2023-01-09T10:23:45.771Z,99597.56
2023-01-09T10:26:25.539Z,99602.16
2023-01-09T10:29:04.774Z,99602.31
2023-01-09T10:31:46.227Z,99605.34
2023-01-09T10:35:03.724Z,99609.25
2023-01-09T10:37:43.737Z,99617.13
2023-01-09T10:40:22.043Z,99617.59
2023-01-09T10:43:11.428Z,99615.09
2023-01-09T10:45:54.467Z,99619.56
2023-01-09T10:48:32.689Z,99623.13
2023-01-09T10:51:00.034Z,99618.69
2023-01-09T10:53:35.288Z,99622.06
2023-01-09T10:56:32.750Z,99623.38
2023-01-09T10:58:59.589Z,99628.25
2023-01-09T11:01:32.853Z,99635.63
2023-01-09T11:04:01.766Z,99636.91
2023-01-09T11:06:44.959Z,99642.84
2023-01-09T11:09:12.343Z,99639.97
2023-01-09T11:11:42.921Z,99651.22
2023-01-09T11:14:18.268Z,99648.84
2023-01-09T11:16:58.213Z,99642.28
2023-01-09T11:19:26.330Z,99642.56
2023-01-09T11:22:16.761Z,99655.25
2023-01-09T11:24:44.080Z,99656.44
2023-01-09T11:27:13.923Z,99654.72
2023-01-09T11:29:41.728Z,99653.31
2023-01-09T11:32:29.054Z,99665.16
2023-01-09T11:34:57.240Z,99660.06
2023-01-09T11:37:30.540Z,99668.56
2023-01-09T11:40:01.013Z,99665.13
2023-01-09T11:42:48.439Z,99665.34
2023-01-09T11:45:16.688Z,99673.06
2023-01-09T11:47:43.791Z,99670.94
2023-01-09T11:50:31.046Z,99672.09
2023-01-09T11:53:13.242Z,99677.91
2023-01-09T11:55:42.940Z,99678.06
2023-01-09T11:58:19.742Z,99670.66
2023-01-09T12:01:17.512Z,99681.75
2023-01-09T12:04:13.606Z,99682.81
2023-01-09T12:06:46.357Z,99696.31
2023-01-09T12:09:37.593Z,99682.06
2023-01-09T12:12:18.503Z,99690.69
2023-01-09T12:15:00.523Z,99693.28
2023-01-09T12:17:44.266Z,99693.75
2023-01-09T12:20:26.502Z,99690.72
2023-01-09T12:23:11.437Z,99700.16
2023-01-09T12:26:03.047Z,99697.38
2023-01-09T12:28:44.263Z,99689.72
2023-01-09T12:31:34.353Z,99693.75
2023-01-09T12:34:15.059Z,99689.75
2023-01-09T12:36:59.031Z,99689.13
2023-01-09T12:39:57.472Z,99707.94
2023-01-09T12:42:39.888Z,99702.72
2023-01-09T12:45:32.304Z,99701.56
2023-01-09T12:48:21.841Z,99707.41
2023-01-09T12:51:13.432Z,99707.41
2023-01-09T12:53:47.670Z,99695.16
2023-01-09T12:56:17.163Z,99702.63
2023-01-09T12:58:46.579Z,99702.44
2023-01-09T13:01:25.779Z,99700.66
2023-01-09T13:04:20.064Z,99700.50
2023-01-09T13:07:00.048Z,99707.69
2023-01-09T13:09:47.417Z,99711.03
2023-01-09T13:12:17.122Z,99708.59
2023-01-09T13:14:47.057Z,99716.06
2023-01-09T13:17:37.064Z,99717.75
2023-01-09T13:20:29.860Z,99718.72
2023-01-09T13:22:56.943Z,99725.34
2023-01-09T13:25:44.740Z,99719.13
2023-01-09T13:28:27.997Z,99737.41
2023-01-09T13:31:04.904Z,99734.72
2023-01-09T13:33:35.047Z,99735.84
2023-01-09T13:36:05.767Z,99736.59
2023-01-09T13:38:34.717Z,99750.19
2023-01-09T13:41:38.256Z,99766.72
2023-01-09T13:44:16.132Z,99765.63
2023-01-09T13:46:45.874Z,99770.00
2023-01-09T13:49:34.364Z,99765.47
2023-01-09T13:52:31.739Z,99761.06
2023-01-09T13:54:58.801Z,99763.91
2023-01-09T13:57:31.534Z,99755.91
2023-01-09T14:00:07.725Z,99758.75
2023-01-09T14:02:41.807Z,99752.75
2023-01-09T14:05:09.537Z,99768.81
2023-01-09T14:07:37.870Z,99771.66
2023-01-09T14:10:28.928Z,99782.06
2023-01-09T14:12:57.279Z,99780.91
2023-01-09T14:15:51.128Z,99794.63
2023-01-09T14:18:26.486Z,99801.81
2023-01-09T14:20:57.234Z,99816.13
2023-01-09T14:23:50.845Z,99828.63
2023-01-09T14:26:21.412Z,99830.06
2023-01-09T14:28:48.313Z,99832.22
2023-01-09T14:31:33.911Z,99843.78
2023-01-09T14:34:32.161Z,99846.28
2023-01-09T14:37:01.440Z,99862.19
2023-01-09T14:39:30.434Z,99864.25
2023-01-09T14:42:07.943Z,99863.91
2023-01-09T14:44:53.425Z,99871.81
2023-01-09T14:47:42.995Z,99884.16
2023-01-09T14:50:18.790Z,99892.19
2023-01-09T14:52:48.885Z,99898.97
2023-01-09T14:55:27.938Z,99905.44
2023-01-09T14:57:55.176Z,99910.97
2023-01-09T15:00:23.215Z,99920.78
2023-01-09T15:02:52.023Z,99923.31
2023-01-09T15:05:28.024Z,99936.31
2023-01-09T15:07:58.575Z,99931.28
2023-01-09T15:10:35.141Z,99936.34
2023-01-09T15:13:03.939Z,99937.94
2023-01-09T15:15:31.795Z,99956.88
2023-01-09T15:18:00.623Z,99946.66
2023-01-09T15:20:30.232Z,99955.56
2023-01-09T15:22:58.198Z,99963.53
2023-01-09T15:25:45.398Z,99951.91
2023-01-09T15:28:32.914Z,99963.13
2023-01-09T15:31:02.952Z,99966.44
2023-01-09T15:33:29.893Z,99977.88
2023-01-09T15:36:02.099Z,99979.22
2023-01-09T15:38:31.737Z,99986.34
2023-01-09T15:41:00.759Z,99998.19
2023-01-09T15:43:29.267Z,99994.50
2023-01-09T15:45:57.113Z,100004.63
2023-01-09T15:48:29.379Z,100011.22
2023-01-09T15:50:58.891Z,100012.53
2023-01-09T15:53:28.045Z,100020.16
2023-01-09T15:56:13.475Z,100032.81
2023-01-09T15:58:47.145Z,100040.25
2023-01-09T16:01:37.672Z,100038.56
2023-01-09T16:04:06.112Z,100046.75
2023-01-09T16:06:36.103Z,100046.91
2023-01-09T16:09:12.971Z,100053.00
2023-01-09T16:11:40.212Z,100049.00
2023-01-09T16:14:14.089Z,100064.03
2023-01-09T16:16:41.890Z,100069.97
2023-01-09T16:19:34.821Z,100076.59
2023-01-09T16:22:02.770Z,100070.97
2023-01-09T16:24:42.139Z,100083.38
2023-01-09T16:27:21.126Z,100092.00
2023-01-09T16:29:57.622Z,100102.75
2023-01-09T16:32:31.139Z,100110.28
2023-01-09T16:35:00.889Z,100113.28
2023-01-09T16:37:28.397Z,100123.56
2023-01-09T16:40:25.745Z,100129.78
2023-01-09T16:43:01.124Z,100135.03
2023-01-09T16:45:36.753Z,100145.63
2023-01-09T16:48:15.717Z,100146.28
2023-01-09T16:50:42.887Z,100152.91
2023-01-09T16:53:16.134Z,100151.16
2023-01-09T16:55:43.543Z,100161.41
2023-01-09T16:58:18.924Z,100165.81
2023-01-09T17:00:46.216Z,100168.09
2023-01-09T17:03:14.668Z,100169.88
2023-01-09T17:05:41.766Z,100166.28
2023-01-09T17:08:29.512Z,100185.81
2023-01-09T17:10:57.356Z,100183.00
2023-01-09T17:13:25.023Z,100186.53
2023-01-09T17:15:56.352Z,100192.94
2023-01-09T17:18:27.084Z,100200.75
2023-01-09T17:20:56.580Z,100221.22
2023-01-09T17:23:25.850Z,100211.97
2023-01-09T17:26:15.544Z,100228.66
2023-01-09T17:28:50.755Z,100235.34
2023-01-09T17:31:18.183Z,100247.22
2023-01-09T17:33:44.910Z,100246.69
2023-01-09T17:36:25.216Z,100252.94
2023-01-09T17:38:55.034Z,100248.53
2023-01-09T17:41:23.810Z,100250.53
2023-01-09T17:43:51.201Z,100263.63
2023-01-09T17:46:33.308Z,100292.97
2023-01-09T17:49:00.770Z,100288.34
2023-01-09T17:51:28.072Z,100268.66
2023-01-09T17:53:55.790Z,100263.56
2023-01-09T17:56:25.651Z,100273.41
2023-01-09T17:58:52.908Z,100299.50
2023-01-09T18:01:20.416Z,100326.00
2023-01-09T18:03:48.966Z,100325.78
2023-01-09T18:06:21.130Z,100331.22
2023-01-09T18:08:48.383Z,100322.06
2023-01-09T18:11:19.115Z,100333.75
2023-01-09T18:13:47.615Z,100335.94
2023-01-09T18:16:17.901Z,100332.72
2023-01-09T18:18:47.547Z,100333.28
2023-01-09T18:21:20.368Z,100349.78
2023-01-09T18:23:48.295Z,100368.72
2023-01-09T18:26:21.001Z,100362.69
2023-01-09T18:28:56.934Z,100359.75
2023-01-09T18:31:26.156Z,100365.13
2023-01-09T18:33:54.682Z,100373.44
2023-01-09T18:36:23.826Z,100385.78
2023-01-09T18:38:52.228Z,100387.22
2023-01-09T18:41:19.381Z,100398.34
2023-01-09T18:43:56.605Z,100391.22
2023-01-09T18:46:24.709Z,100404.94
2023-01-09T18:49:16.372Z,100412.88
2023-01-09T18:51:43.974Z,100410.50
2023-01-09T18:54:14.114Z,100420.97
2023-01-09T18:57:13.214Z,100420.19
2023-01-09T18:59:43.019Z,100409.22
2023-01-09T19:02:46.861Z,100428.47
2023-01-09T19:05:26.008Z,100433.28
2023-01-09T19:07:56.175Z,100453.94
2023-01-09T19:10:23.059Z,100451.31
2023-01-09T19:12:49.880Z,100468.56
2023-01-09T19:15:16.936Z,100477.41
2023-01-09T19:17:43.651Z,100484.50
2023-01-09T19:20:11.133Z,100493.72
2023-01-09T19:22:37.919Z,100498.88
2023-01-09T19:25:05.282Z,100508.22
2023-01-09T19:27:59.928Z,100515.91
2023-01-09T19:30:29.001Z,100510.44
2023-01-09T19:32:55.812Z,100526.97
2023-01-09T19:36:39.959Z,100532.13
2023-01-09T19:39:09.697Z,100537.50
2023-01-09T19:41:42.658Z,100519.34
2023-01-09T19:44:09.800Z,100552.25
2023-01-09T19:46:43.676Z,100547.56
2023-01-09T19:49:16.943Z,100554.03
2023-01-09T19:51:44.700Z,100551.34
2023-01-09T19:54:36.550Z,100577.91
2023-01-09T19:57:10.200Z,100583.50
2023-01-09T19:59:41.590Z,100580.91
2023-01-09T20:02:10.656Z,100594.84
2023-01-09T20:04:40.549Z,100595.44
2023-01-09T20:07:07.539Z,100608.63
2023-01-09T20:09:34.331Z,100609.41
2023-01-09T20:12:02.521Z,100619.09
2023-01-09T20:14:30.228Z,100621.06
2023-01-09T20:17:00.985Z,100619.03
2023-01-09T20:19:30.184Z,100637.88
2023-01-09T20:21:56.936Z,100635.94
2023-01-09T20:24:26.441Z,100639.44
2023-01-09T20:26:53.511Z,100635.63
2023-01-09T20:29:21.055Z,100636.59
2023-01-09T20:31:48.136Z,100653.22
2023-01-09T20:34:16.051Z,100640.44
2023-01-09T20:36:43.288Z,100653.97
2023-01-09T20:39:11.659Z,100668.16
2023-01-09T20:41:38.451Z,100657.72
2023-01-09T20:44:07.612Z,100666.56
2023-01-09T20:46:42.301Z,100664.03
2023-01-09T20:49:12.331Z,100664.25
2023-01-09T20:51:46.104Z,100668.72
2023-01-09T20:54:13.897Z,100675.13
2023-01-09T20:56:41.044Z,100675.53
2023-01-09T20:59:12.594Z,100678.47
2023-01-09T21:01:40.393Z,100676.94
2023-01-09T21:04:08.819Z,100680.66
2023-01-09T21:06:36.277Z,100685.47
2023-01-09T21:09:04.273Z,100698.53
2023-01-09T21:11:31.307Z,100699.97
2023-01-09T21:13:58.153Z,100695.38
2023-01-09T21:16:26.011Z,100703.72
2023-01-09T21:18:54.171Z,100702.56
2023-01-09T21:21:23.884Z,100714.41
2023-01-09T21:23:54.832Z,100709.53
2023-01-09T21:26:24.899Z,100718.22
2023-01-09T21:28:55.228Z,100726.75
2023-01-09T21:31:35.058Z,100728.03
2023-01-09T21:34:05.064Z,100737.53
2023-01-09T21:36:32.133Z,100731.53
2023-01-09T21:39:00.149Z,100733.72
2023-01-09T21:41:45.506Z,100747.81
2023-01-09T21:44:31.566Z,100758.41
2023-01-09T21:47:03.175Z,100755.13
2023-01-09T21:49:34.826Z,100756.69
2023-01-09T21:52:06.092Z,100759.41
2023-01-09T21:54:33.687Z,100754.69
2023-01-09T21:57:01.701Z,100756.88
2023-01-09T21:59:31.819Z,100758.81
2023-01-09T22:01:59.212Z,100759.81
2023-01-09T22:04:30.943Z,100758.16
2023-01-09T22:06:57.855Z,100764.22
2023-01-09T22:09:24.924Z,100766.28
2023-01-09T22:11:51.734Z,100765.13
2023-01-09T22:14:19.489Z,100775.84
2023-01-09T22:16:46.603Z,100783.44
2023-01-09T22:19:14.455Z,100800.59
2023-01-09T22:21:41.333Z,100801.03
2023-01-09T22:24:09.277Z,100812.72
2023-01-09T22:26:36.443Z,100813.38
2023-01-09T22:29:03.174Z,100827.88
2023-01-09T22:31:30.293Z,100842.44
2023-01-09T22:33:58.992Z,100850.41
2023-01-09T22:36:27.747Z,100859.78
2023-01-09T22:38:56.072Z,100862.50
2023-01-09T22:41:23.912Z,100860.63
2023-01-09T22:43:50.667Z,100870.50
2023-01-09T22:46:17.737Z,100886.59
2023-01-09T22:48:44.476Z,100894.97
2023-01-09T22:51:14.010Z,100900.94
2023-01-09T22:53:41.639Z,100915.25
2023-01-09T22:56:11.856Z,100909.19
2023-01-09T22:58:38.706Z,100919.38
2023-01-09T23:01:05.870Z,100927.59
2023-01-09T23:03:32.846Z,100927.19
2023-01-09T23:06:03.464Z,100933.94
2023-01-09T23:08:30.755Z,100933.38
2023-01-09T23:10:58.553Z,100940.81
2023-01-09T23:13:27.346Z,100940.66
2023-01-09T23:15:54.758Z,100948.72
2023-01-09T23:18:21.755Z,100944.38
2023-01-09T23:20:52.607Z,100959.56
2023-01-09T23:23:21.072Z,100959.13
2023-01-09T23:25:51.376Z,100957.78
2023-01-09T23:28:18.779Z,100961.69
2023-01-09T23:30:45.803Z,100979.81
2023-01-09T23:33:12.983Z,100980.56
2023-01-09T23:35:40.093Z,100988.19
2023-01-09T23:38:07.513Z,100995.53
2023-01-09T23:40:38.653Z,101002.66
2023-01-09T23:43:11.450Z,101003.06
2023-01-09T23:45:43.555Z,101002.47
2023-01-09T23:48:12.792Z,101015.69
2023-01-09T23:50:42.761Z,101021.47
2023-01-09T23:53:10.729Z,101029.19
2023-01-09T23:55:37.521Z,101030.72
2023-01-09T23:58:04.348Z,101039.53
